createdAt,value
2017-09-19T00:00:14.433Z,0.00
2017-09-19T00:01:14.405Z,0.00
2017-09-19T00:02:14.370Z,0.00
2017-09-19T00:03:14.335Z,0.00
2017-09-19T00:04:14.303Z,0.00
2017-09-19T00:05:14.271Z,0.00
2017-09-19T00:06:14.239Z,0.00
2017-09-19T00:07:14.205Z,0.00
2017-09-19T00:08:14.170Z,0.00
2017-09-19T00:09:14.139Z,0.00
2017-09-19T00:10:14.107Z,0.00
2017-09-19T00:11:14.074Z,0.00
2017-09-19T00:12:14.045Z,0.00
2017-09-19T00:13:14.009Z,0.00
2017-09-19T00:14:13.976Z,0.00
2017-09-19T00:15:13.943Z,0.00
2017-09-19T00:16:13.910Z,0.00
2017-09-19T00:17:13.879Z,0.00
2017-09-19T00:18:13.843Z,0.00
2017-09-19T00:19:13.813Z,0.00
2017-09-19T00:20:13.781Z,0.00
2017-09-19T00:21:13.747Z,0.00
2017-09-19T00:22:13.730Z,0.00
2017-09-19T00:23:13.683Z,0.00
2017-09-19T00:24:13.648Z,0.00
2017-09-19T00:25:13.619Z,0.00
2017-09-19T00:26:13.589Z,0.00
2017-09-19T00:27:13.553Z,0.00
2017-09-19T00:28:13.520Z,0.00
2017-09-19T00:29:13.487Z,0.00
2017-09-19T00:30:13.453Z,0.00
2017-09-19T00:31:13.423Z,0.00
2017-09-19T00:32:13.390Z,0.00
2017-09-19T00:33:13.355Z,0.00
2017-09-19T00:34:13.323Z,0.00
2017-09-19T00:35:13.289Z,0.00
2017-09-19T00:36:13.256Z,0.00
2017-09-19T00:37:13.226Z,0.00
2017-09-19T00:38:13.193Z,0.00
2017-09-19T00:39:13.171Z,0.00
2017-09-19T00:40:13.278Z,0.00
2017-09-19T00:41:13.095Z,0.00
2017-09-19T00:42:13.063Z,0.00
2017-09-19T00:43:13.035Z,0.00
2017-09-19T00:44:13.245Z,0.00
2017-09-19T00:45:12.966Z,0.00
2017-09-19T00:46:12.945Z,0.00
2017-09-19T00:47:12.901Z,0.00
2017-09-19T00:48:12.867Z,0.00
2017-09-19T00:49:12.835Z,0.00
2017-09-19T00:50:12.804Z,0.00
2017-09-19T00:51:12.772Z,0.00
2017-09-19T00:52:12.740Z,0.00
2017-09-19T00:53:12.708Z,0.00
2017-09-19T00:54:12.674Z,0.00
2017-09-19T00:55:12.641Z,0.00
2017-09-19T00:56:12.609Z,0.00
2017-09-19T00:57:12.576Z,0.00
2017-09-19T00:58:12.547Z,0.00
2017-09-19T00:59:12.514Z,0.00
2017-09-19T01:00:12.481Z,0.00
2017-09-19T01:01:12.861Z,0.00
2017-09-19T01:02:12.417Z,0.00
2017-09-19T01:03:12.385Z,0.00
2017-09-19T01:04:12.353Z,0.00
2017-09-19T01:05:12.318Z,0.00
2017-09-19T01:06:12.290Z,0.00
2017-09-19T01:07:12.257Z,0.00
2017-09-19T01:08:12.224Z,0.00
2017-09-19T01:09:12.192Z,0.00
2017-09-19T01:10:12.161Z,0.00
2017-09-19T01:11:12.129Z,0.00
2017-09-19T01:12:12.098Z,0.00
2017-09-19T01:13:12.064Z,0.00
2017-09-19T01:14:12.033Z,0.00
2017-09-19T01:15:11.999Z,0.00
2017-09-19T01:16:11.969Z,0.00
2017-09-19T01:17:11.937Z,0.00
2017-09-19T01:18:11.904Z,0.00
2017-09-19T01:19:11.872Z,0.00
2017-09-19T01:20:11.840Z,0.00
2017-09-19T01:21:11.809Z,0.00
2017-09-19T01:22:11.777Z,0.00
2017-09-19T01:23:11.745Z,0.00
2017-09-19T01:24:11.713Z,0.00
2017-09-19T01:25:11.675Z,0.00
2017-09-19T01:26:11.651Z,0.00
2017-09-19T01:27:11.617Z,0.00
2017-09-19T01:28:11.584Z,0.00
2017-09-19T01:29:11.552Z,0.00
2017-09-19T01:30:11.521Z,0.00
2017-09-19T01:31:11.504Z,0.00
2017-09-19T01:32:11.456Z,0.00
2017-09-19T01:33:11.426Z,0.00
2017-09-19T01:34:11.393Z,0.00
2017-09-19T01:35:11.361Z,0.00
2017-09-19T01:36:11.328Z,0.00
2017-09-19T01:37:11.297Z,0.00
2017-09-19T01:38:11.265Z,0.00
2017-09-19T01:39:11.234Z,0.00
2017-09-19T01:40:12.041Z,0.00
2017-09-19T01:41:11.170Z,0.00
2017-09-19T01:42:11.138Z,0.00
2017-09-19T01:43:11.104Z,0.00
2017-09-19T01:44:11.073Z,0.00
2017-09-19T01:45:11.255Z,0.00
2017-09-19T01:46:11.009Z,0.00
2017-09-19T01:47:10.978Z,0.00
2017-09-19T01:48:10.944Z,0.00
2017-09-19T01:49:10.913Z,0.00
2017-09-19T01:50:10.881Z,0.00
2017-09-19T01:51:10.847Z,0.00
2017-09-19T01:52:10.818Z,0.00
2017-09-19T01:53:10.785Z,0.00
2017-09-19T01:54:10.754Z,0.00
2017-09-19T01:55:10.718Z,0.00
2017-09-19T01:56:10.689Z,0.00
2017-09-19T01:57:10.658Z,0.00
2017-09-19T01:58:10.624Z,0.00
2017-09-19T01:59:10.591Z,0.00
2017-09-19T02:00:10.560Z,0.00
2017-09-19T02:01:10.526Z,0.00
2017-09-19T02:02:10.495Z,0.00
2017-09-19T02:03:10.464Z,0.00
2017-09-19T02:04:10.429Z,0.00
2017-09-19T02:05:10.400Z,0.00
2017-09-19T02:06:10.367Z,0.00
2017-09-19T02:07:10.334Z,0.00
2017-09-19T02:08:10.301Z,0.00
2017-09-19T02:09:10.270Z,0.00
2017-09-19T02:10:10.237Z,0.00
2017-09-19T02:11:10.207Z,0.00
2017-09-19T02:12:10.173Z,0.00
2017-09-19T02:13:10.142Z,0.00
2017-09-19T02:14:10.109Z,0.00
2017-09-19T02:15:10.077Z,0.00
2017-09-19T02:16:10.045Z,0.00
2017-09-19T02:17:10.226Z,0.00
2017-09-19T02:18:09.983Z,0.00
2017-09-19T02:19:09.949Z,0.00
2017-09-19T02:20:09.916Z,0.00
2017-09-19T02:21:09.885Z,0.00
2017-09-19T02:22:09.852Z,0.00
2017-09-19T02:23:09.819Z,0.00
2017-09-19T02:24:09.822Z,0.00
2017-09-19T02:25:09.756Z,0.00
2017-09-19T02:26:09.726Z,0.00
2017-09-19T02:27:09.693Z,0.00
2017-09-19T02:28:09.660Z,0.00
2017-09-19T02:29:09.629Z,0.00
2017-09-19T02:30:09.598Z,0.00
2017-09-19T02:31:09.564Z,0.00
2017-09-19T02:32:09.536Z,0.00
2017-09-19T02:33:09.508Z,0.00
2017-09-19T02:34:09.470Z,0.00
2017-09-19T02:35:09.438Z,0.00
2017-09-19T02:36:09.405Z,0.00
2017-09-19T02:37:09.373Z,0.00
2017-09-19T02:38:09.343Z,0.00
2017-09-19T02:39:09.309Z,0.00
2017-09-19T02:40:09.278Z,0.00
2017-09-19T02:41:09.246Z,0.00
2017-09-19T02:42:09.211Z,0.00
2017-09-19T02:43:09.181Z,0.00
2017-09-19T02:44:09.149Z,0.00
2017-09-19T02:45:09.118Z,0.00
2017-09-19T02:46:09.087Z,0.00
2017-09-19T02:47:09.052Z,0.00
2017-09-19T02:48:09.021Z,0.00
2017-09-19T02:49:08.988Z,0.00
2017-09-19T02:50:08.957Z,0.00
2017-09-19T02:51:08.920Z,0.00
2017-09-19T02:52:08.892Z,0.00
2017-09-19T02:53:08.860Z,0.00
2017-09-19T02:54:08.831Z,0.00
2017-09-19T02:55:08.799Z,0.00
2017-09-19T02:56:08.762Z,0.00
2017-09-19T02:57:08.732Z,0.00
2017-09-19T02:58:08.699Z,0.00
2017-09-19T02:59:08.667Z,0.00
2017-09-19T03:00:08.640Z,0.00
2017-09-19T03:01:08.603Z,0.00
2017-09-19T03:02:08.571Z,0.00
2017-09-19T03:03:08.538Z,0.00
2017-09-19T03:04:08.521Z,0.00
2017-09-19T03:05:08.473Z,0.00
2017-09-19T03:06:08.442Z,0.00
2017-09-19T03:07:08.410Z,0.00
2017-09-19T03:08:08.378Z,0.00
2017-09-19T03:09:08.339Z,0.00
2017-09-19T03:10:08.316Z,0.00
2017-09-19T03:11:08.281Z,0.00
2017-09-19T03:12:08.253Z,0.00
2017-09-19T03:13:08.221Z,0.00
2017-09-19T03:14:08.186Z,0.00
2017-09-19T03:15:08.152Z,0.00
2017-09-19T03:16:08.121Z,0.00
2017-09-19T03:17:08.089Z,0.00
2017-09-19T03:18:08.058Z,0.00
2017-09-19T03:19:08.025Z,0.00
2017-09-19T03:20:07.994Z,0.00
2017-09-19T03:21:07.963Z,0.00
2017-09-19T03:22:07.932Z,0.00
2017-09-19T03:23:07.899Z,0.00
2017-09-19T03:24:07.868Z,0.00
2017-09-19T03:25:07.835Z,0.00
2017-09-19T03:26:07.804Z,0.00
2017-09-19T03:27:07.770Z,0.00
2017-09-19T03:28:07.738Z,0.00
2017-09-19T03:29:07.707Z,0.00
2017-09-19T03:30:07.677Z,0.00
2017-09-19T03:31:07.644Z,0.00
2017-09-19T03:32:07.611Z,0.00
2017-09-19T03:33:07.580Z,0.00
2017-09-19T03:34:07.548Z,0.00
2017-09-19T03:35:07.516Z,0.00
2017-09-19T03:36:07.483Z,0.00
2017-09-19T03:37:07.454Z,0.00
2017-09-19T03:38:07.421Z,0.00
2017-09-19T03:39:07.388Z,0.00
2017-09-19T03:40:07.358Z,0.00
2017-09-19T03:41:07.325Z,0.00
2017-09-19T03:42:07.296Z,0.00
2017-09-19T03:43:07.262Z,0.00
2017-09-19T03:44:07.230Z,0.00
2017-09-19T03:45:07.198Z,0.00
2017-09-19T03:46:07.166Z,0.00
2017-09-19T03:47:07.133Z,0.00
2017-09-19T03:48:07.102Z,0.00
2017-09-19T03:49:07.071Z,0.00
2017-09-19T03:50:07.037Z,0.00
2017-09-19T03:51:07.006Z,0.00
2017-09-19T03:52:06.974Z,0.00
2017-09-19T03:53:06.943Z,0.00
2017-09-19T03:54:06.911Z,0.00
2017-09-19T03:55:06.878Z,0.00
2017-09-19T03:56:06.847Z,0.00
2017-09-19T03:57:06.817Z,0.00
2017-09-19T03:58:06.784Z,0.00
2017-09-19T03:59:06.751Z,0.00
2017-09-19T04:00:06.720Z,0.00
2017-09-19T04:01:06.687Z,0.00
2017-09-19T04:02:06.656Z,0.00
2017-09-19T04:03:06.623Z,0.00
2017-09-19T04:04:06.590Z,0.00
2017-09-19T04:05:06.557Z,0.00
2017-09-19T04:06:06.526Z,0.00
2017-09-19T04:07:06.494Z,0.00
2017-09-19T04:08:06.462Z,0.00
2017-09-19T04:09:06.431Z,0.00
2017-09-19T04:10:06.400Z,0.00
2017-09-19T04:11:06.365Z,0.00
2017-09-19T04:12:06.333Z,0.00
2017-09-19T04:13:06.301Z,0.00
2017-09-19T04:14:06.269Z,0.00
2017-09-19T04:15:06.237Z,0.00
2017-09-19T04:16:06.205Z,0.00
2017-09-19T04:17:06.172Z,0.00
2017-09-19T04:18:06.141Z,0.00
2017-09-19T04:19:06.107Z,0.00
2017-09-19T04:20:06.076Z,0.00
2017-09-19T04:21:06.044Z,0.00
2017-09-19T04:22:06.012Z,0.00
2017-09-19T04:23:05.982Z,0.00
2017-09-19T04:24:05.947Z,0.00
2017-09-19T04:25:05.915Z,0.00
2017-09-19T04:26:05.882Z,0.00
2017-09-19T04:27:05.851Z,0.00
2017-09-19T04:28:05.818Z,0.00
2017-09-19T04:29:05.787Z,0.00
2017-09-19T04:30:05.752Z,0.00
2017-09-19T04:31:05.724Z,0.00
2017-09-19T04:32:05.690Z,0.00
2017-09-19T04:33:05.655Z,0.00
2017-09-19T04:34:05.626Z,0.00
2017-09-19T04:35:05.590Z,0.00
2017-09-19T04:36:05.560Z,0.00
2017-09-19T04:37:05.527Z,0.00
2017-09-19T04:38:05.496Z,0.00
2017-09-19T04:39:05.463Z,0.00
2017-09-19T04:40:05.430Z,0.00
2017-09-19T04:41:05.400Z,0.00
2017-09-19T04:42:05.368Z,0.00
2017-09-19T04:43:05.334Z,0.00
2017-09-19T04:44:05.303Z,0.00
2017-09-19T04:45:05.270Z,0.00
2017-09-19T04:46:05.237Z,0.00
2017-09-19T04:47:05.204Z,0.00
2017-09-19T04:48:05.170Z,0.00
2017-09-19T04:49:05.141Z,0.00
2017-09-19T04:50:05.109Z,0.00
2017-09-19T04:51:05.085Z,0.00
2017-09-19T04:52:05.045Z,0.00
2017-09-19T04:53:05.014Z,0.00
2017-09-19T04:54:04.981Z,0.00
2017-09-19T04:55:04.948Z,0.00
2017-09-19T04:56:04.915Z,0.00
2017-09-19T04:57:04.885Z,4.00
2017-09-19T04:58:04.851Z,4.00
2017-09-19T04:59:04.813Z,0.00
2017-09-19T05:00:04.786Z,0.00
2017-09-19T05:01:04.756Z,4.00
2017-09-19T05:02:04.724Z,4.00
2017-09-19T05:03:04.696Z,4.00
2017-09-19T05:04:04.659Z,0.00
2017-09-19T05:05:04.630Z,4.00
2017-09-19T05:06:04.593Z,4.00
2017-09-19T05:07:04.565Z,8.00
2017-09-19T05:08:04.531Z,8.00
2017-09-19T05:09:04.498Z,4.00
2017-09-19T05:10:04.469Z,8.00
2017-09-19T05:11:04.775Z,12.00
2017-09-19T05:12:04.398Z,12.00
2017-09-19T05:13:04.369Z,12.00
2017-09-19T05:14:04.335Z,16.00
2017-09-19T05:15:04.307Z,16.00
2017-09-19T05:16:04.272Z,20.00
2017-09-19T05:17:04.242Z,20.00
2017-09-19T05:18:04.210Z,24.00
2017-09-19T05:19:04.184Z,24.00
2017-09-19T05:20:04.145Z,28.00
2017-09-19T05:21:04.111Z,32.00
2017-09-19T05:22:04.080Z,32.00
2017-09-19T05:23:04.047Z,32.00
2017-09-19T05:24:04.012Z,36.00
2017-09-19T05:25:03.981Z,40.00
2017-09-19T05:26:03.955Z,36.00
2017-09-19T05:27:03.917Z,44.00
2017-09-19T05:28:03.885Z,52.00
2017-09-19T05:29:03.854Z,60.00
2017-09-19T05:30:03.822Z,64.00
2017-09-19T05:31:03.789Z,64.00
2017-09-19T05:32:03.759Z,68.00
2017-09-19T05:33:03.755Z,68.00
2017-09-19T05:34:03.692Z,80.00
2017-09-19T05:35:03.660Z,84.00
2017-09-19T05:36:03.627Z,80.00
2017-09-19T05:37:03.596Z,88.00
2017-09-19T05:38:03.564Z,88.00
2017-09-19T05:39:03.532Z,80.00
2017-09-19T05:40:03.500Z,80.00
2017-09-19T05:41:03.467Z,88.00
2017-09-19T05:42:03.438Z,88.00
2017-09-19T05:43:03.403Z,84.00
2017-09-19T05:44:03.371Z,84.00
2017-09-19T05:45:03.338Z,80.00
2017-09-19T05:46:03.307Z,84.00
2017-09-19T05:47:03.275Z,88.00
2017-09-19T05:48:03.243Z,92.00
2017-09-19T05:49:03.210Z,92.00
2017-09-19T05:50:03.178Z,104.00
2017-09-19T05:51:03.160Z,108.00
2017-09-19T05:52:03.114Z,116.00
2017-09-19T05:53:03.081Z,124.00
2017-09-19T05:54:03.050Z,124.00
2017-09-19T05:55:03.021Z,116.00
2017-09-19T05:56:02.986Z,116.00
2017-09-19T05:57:02.953Z,120.00
2017-09-19T05:58:02.922Z,116.00
2017-09-19T05:59:02.890Z,120.00
2017-09-19T06:00:02.858Z,128.00
2017-09-19T06:01:02.825Z,124.00
2017-09-19T06:02:02.792Z,128.00
2017-09-19T06:03:02.761Z,132.00
2017-09-19T06:04:02.729Z,148.00
2017-09-19T06:05:02.697Z,164.00
2017-09-19T06:06:02.665Z,176.00
2017-09-19T06:07:02.633Z,184.00
2017-09-19T06:08:02.603Z,176.00
2017-09-19T06:09:02.567Z,184.00
2017-09-19T06:10:02.536Z,188.00
2017-09-19T06:11:02.501Z,208.00
2017-09-19T06:12:02.473Z,236.00
2017-09-19T06:13:02.440Z,248.00
2017-09-19T06:14:02.408Z,248.00
2017-09-19T06:15:02.375Z,252.00
2017-09-19T06:16:02.337Z,260.00
2017-09-19T06:17:02.313Z,264.00
2017-09-19T06:18:02.279Z,276.00
2017-09-19T06:19:02.246Z,296.00
2017-09-19T06:20:02.218Z,300.00
2017-09-19T06:21:02.180Z,312.00
2017-09-19T06:22:02.148Z,324.00
2017-09-19T06:23:02.115Z,344.00
2017-09-19T06:24:02.082Z,352.00
2017-09-19T06:25:02.049Z,356.00
2017-09-19T06:26:02.021Z,344.00
2017-09-19T06:27:01.986Z,340.00
2017-09-19T06:28:01.952Z,364.00
2017-09-19T06:29:01.919Z,396.00
2017-09-19T06:30:01.888Z,416.00
2017-09-19T06:31:01.856Z,432.00
2017-09-19T06:32:01.823Z,496.00
2017-09-19T06:33:01.791Z,552.00
2017-09-19T06:34:01.760Z,604.00
2017-09-19T06:35:01.728Z,648.00
2017-09-19T06:36:01.695Z,676.00
2017-09-19T06:37:01.662Z,728.00
2017-09-19T06:38:01.631Z,784.00
2017-09-19T06:39:01.597Z,812.00
2017-09-19T06:40:01.565Z,764.00
2017-09-19T06:41:01.533Z,732.00
2017-09-19T06:42:01.502Z,700.00
2017-09-19T06:43:01.468Z,700.00
2017-09-19T06:44:01.436Z,684.00
2017-09-19T06:45:01.406Z,636.00
2017-09-19T06:46:01.371Z,584.00
2017-09-19T06:47:01.340Z,536.00
2017-09-19T06:48:01.322Z,508.00
2017-09-19T06:49:01.276Z,520.00
2017-09-19T06:50:01.244Z,556.00
2017-09-19T06:51:01.213Z,580.00
2017-09-19T06:52:01.182Z,600.00
2017-09-19T06:53:01.149Z,612.00
2017-09-19T06:54:01.116Z,672.00
2017-09-19T06:55:01.081Z,824.00
2017-09-19T06:56:01.050Z,1044.00
2017-09-19T06:57:01.020Z,1132.00
2017-09-19T06:58:00.988Z,1184.00
2017-09-19T06:59:00.955Z,1184.00
2017-09-19T07:00:00.923Z,1124.00
2017-09-19T07:01:00.891Z,1000.00
2017-09-19T07:02:00.860Z,812.00
2017-09-19T07:03:00.827Z,668.00
2017-09-19T07:04:00.795Z,568.00
2017-09-19T07:05:00.763Z,528.00
2017-09-19T07:06:00.732Z,504.00
2017-09-19T07:07:00.698Z,468.00
2017-09-19T07:08:00.665Z,444.00
2017-09-19T07:09:00.637Z,436.00
2017-09-19T07:10:00.605Z,448.00
2017-09-19T07:11:00.573Z,480.00
2017-09-19T07:12:00.541Z,520.00
2017-09-19T07:13:00.510Z,576.00
2017-09-19T07:14:00.478Z,660.00
2017-09-19T07:15:00.446Z,744.00
2017-09-19T07:16:00.414Z,724.00
2017-09-19T07:17:00.382Z,788.00
2017-09-19T07:18:00.350Z,896.00
2017-09-19T07:19:00.319Z,940.00
2017-09-19T07:20:00.288Z,972.00
2017-09-19T07:21:00.257Z,1032.00
2017-09-19T07:22:00.225Z,1192.00
2017-09-19T07:23:00.191Z,1264.00
2017-09-19T07:24:00.160Z,1172.00
2017-09-19T07:25:00.128Z,1200.00
2017-09-19T07:26:00.099Z,1228.00
2017-09-19T07:27:00.066Z,1232.00
2017-09-19T07:28:00.034Z,1140.00
2017-09-19T07:29:00.003Z,1136.00
2017-09-19T07:29:59.971Z,1360.00
2017-09-19T07:31:00.322Z,1508.00
2017-09-19T07:31:59.909Z,1460.00
2017-09-19T07:32:59.884Z,1212.00
2017-09-19T07:33:59.847Z,1060.00
2017-09-19T07:34:59.812Z,1020.00
2017-09-19T07:35:59.783Z,948.00
2017-09-19T07:36:59.750Z,880.00
2017-09-19T07:37:59.720Z,832.00
2017-09-19T07:38:59.685Z,840.00
2017-09-19T07:39:59.657Z,920.00
2017-09-19T07:40:59.627Z,964.00
2017-09-19T07:41:59.593Z,992.00
2017-09-19T07:42:59.562Z,980.00
2017-09-19T07:43:59.529Z,984.00
2017-09-19T07:44:59.498Z,1016.00
2017-09-19T07:45:59.468Z,1200.00
2017-09-19T07:46:59.437Z,1272.00
2017-09-19T07:47:59.405Z,1124.00
2017-09-19T07:48:59.373Z,1040.00
2017-09-19T07:49:59.341Z,1048.00
2017-09-19T07:50:59.311Z,1040.00
2017-09-19T07:51:59.278Z,1020.00
2017-09-19T07:52:59.247Z,1056.00
2017-09-19T07:53:59.295Z,1024.00
2017-09-19T07:54:59.184Z,964.00
2017-09-19T07:55:59.151Z,984.00
2017-09-19T07:56:59.120Z,1012.00
2017-09-19T07:57:59.089Z,936.00
2017-09-19T07:58:59.059Z,912.00
2017-09-19T07:59:59.020Z,968.00
2017-09-19T08:00:58.994Z,1032.00
2017-09-19T08:01:58.961Z,1016.00
2017-09-19T08:02:58.931Z,1016.00
2017-09-19T08:03:58.898Z,1020.00
2017-09-19T08:04:58.868Z,1024.00
2017-09-19T08:05:58.838Z,1044.00
2017-09-19T08:06:58.805Z,1036.00
2017-09-19T08:07:58.773Z,1052.00
2017-09-19T08:08:58.742Z,1044.00
2017-09-19T08:09:58.711Z,1072.00
2017-09-19T08:10:58.678Z,1188.00
2017-09-19T08:11:58.648Z,1348.00
2017-09-19T08:12:58.616Z,1424.00
2017-09-19T08:13:58.586Z,1412.00
2017-09-19T08:14:58.553Z,1364.00
2017-09-19T08:15:58.523Z,1328.00
2017-09-19T08:16:58.885Z,1272.00
2017-09-19T08:17:58.461Z,1260.00
2017-09-19T08:18:58.427Z,1280.00
2017-09-19T08:19:58.395Z,1244.00
2017-09-19T08:20:58.363Z,1240.00
2017-09-19T08:21:58.333Z,1240.00
2017-09-19T08:22:58.303Z,1200.00
2017-09-19T08:23:58.271Z,1172.00
2017-09-19T08:24:58.240Z,1192.00
2017-09-19T08:25:58.209Z,1164.00
2017-09-19T08:26:58.177Z,1096.00
2017-09-19T08:27:58.146Z,1072.00
2017-09-19T08:28:58.115Z,1068.00
2017-09-19T08:29:58.083Z,1108.00
2017-09-19T08:30:58.052Z,1080.00
2017-09-19T08:31:58.021Z,996.00
2017-09-19T08:32:57.990Z,964.00
2017-09-19T08:33:57.959Z,960.00
2017-09-19T08:34:57.928Z,960.00
2017-09-19T08:35:57.898Z,996.00
2017-09-19T08:36:57.866Z,940.00
2017-09-19T08:37:57.835Z,848.00
2017-09-19T08:38:57.802Z,824.00
2017-09-19T08:39:57.771Z,880.00
2017-09-19T08:40:57.745Z,928.00
2017-09-19T08:41:57.713Z,940.00
2017-09-19T08:42:57.678Z,924.00
2017-09-19T08:43:57.674Z,864.00
2017-09-19T08:44:57.616Z,844.00
2017-09-19T08:45:57.585Z,900.00
2017-09-19T08:46:57.553Z,1016.00
2017-09-19T08:47:57.521Z,1228.00
2017-09-19T08:48:57.492Z,1384.00
2017-09-19T08:49:57.460Z,1376.00
2017-09-19T08:50:57.432Z,1268.00
2017-09-19T08:51:57.397Z,1196.00
2017-09-19T08:52:57.367Z,1128.00
2017-09-19T08:53:57.336Z,1144.00
2017-09-19T08:54:57.304Z,1232.00
2017-09-19T08:55:57.272Z,1280.00
2017-09-19T08:56:57.253Z,1284.00
2017-09-19T08:57:57.213Z,1288.00
2017-09-19T08:58:57.286Z,1136.00
2017-09-19T08:59:57.149Z,1012.00
2017-09-19T09:00:57.118Z,928.00
2017-09-19T09:01:57.089Z,944.00
2017-09-19T09:02:57.053Z,1068.00
2017-09-19T09:03:57.025Z,1140.00
2017-09-19T09:04:56.993Z,1116.00
2017-09-19T09:05:56.963Z,1028.00
2017-09-19T09:06:56.930Z,944.00
2017-09-19T09:07:56.900Z,896.00
2017-09-19T09:08:56.870Z,872.00
2017-09-19T09:09:56.837Z,880.00
2017-09-19T09:10:56.807Z,916.00
2017-09-19T09:11:56.775Z,940.00
2017-09-19T09:12:56.744Z,956.00
2017-09-19T09:13:56.714Z,1040.00
2017-09-19T09:14:56.684Z,1272.00
2017-09-19T09:15:56.651Z,1772.00
2017-09-19T09:16:56.620Z,2356.00
2017-09-19T09:17:56.590Z,2720.00
2017-09-19T09:18:56.558Z,2988.00
2017-09-19T09:19:56.522Z,2988.00
2017-09-19T09:20:56.495Z,2872.00
2017-09-19T09:21:56.468Z,2920.00
2017-09-19T09:22:56.436Z,3008.00
2017-09-19T09:23:56.404Z,3048.00
2017-09-19T09:24:56.378Z,3148.00
2017-09-19T09:25:56.345Z,3192.00
2017-09-19T09:26:56.313Z,3184.00
2017-09-19T09:27:56.283Z,3108.00
2017-09-19T09:28:56.251Z,3212.00
2017-09-19T09:29:56.224Z,3504.00
2017-09-19T09:30:56.191Z,3816.00
2017-09-19T09:31:56.162Z,3716.00
2017-09-19T09:32:56.131Z,3404.00
2017-09-19T09:33:56.100Z,3632.00
2017-09-19T09:34:56.069Z,3636.00
2017-09-19T09:35:56.039Z,3444.00
2017-09-19T09:36:56.008Z,3308.00
2017-09-19T09:37:55.979Z,3216.00
2017-09-19T09:38:55.952Z,3224.00
2017-09-19T09:39:55.928Z,3080.00
2017-09-19T09:40:55.888Z,3144.00
2017-09-19T09:41:55.858Z,3328.00
2017-09-19T09:42:55.827Z,3380.00
2017-09-19T09:43:55.798Z,3652.00
2017-09-19T09:44:55.770Z,4136.00
2017-09-19T09:45:55.739Z,4816.00
2017-09-19T09:46:55.714Z,5564.00
2017-09-19T09:47:55.679Z,6180.00
2017-09-19T09:48:55.651Z,6384.00
2017-09-19T09:49:55.621Z,6720.00
2017-09-19T09:50:55.593Z,6624.00
2017-09-19T09:51:55.561Z,7008.00
2017-09-19T09:52:55.531Z,7032.00
2017-09-19T09:53:55.504Z,7008.00
2017-09-19T09:54:55.473Z,6592.00
2017-09-19T09:55:55.443Z,6144.00
2017-09-19T09:56:55.420Z,6332.00
2017-09-19T09:57:55.387Z,6220.00
2017-09-19T09:58:55.357Z,5688.00
2017-09-19T09:59:55.327Z,5184.00
2017-09-19T10:00:55.300Z,5332.00
2017-09-19T10:01:55.272Z,5716.00
2017-09-19T10:02:55.241Z,5704.00
2017-09-19T10:03:55.214Z,5280.00
2017-09-19T10:04:55.186Z,4472.00
2017-09-19T10:05:55.156Z,3684.00
2017-09-19T10:06:55.127Z,3048.00
2017-09-19T10:07:55.096Z,2636.00
2017-09-19T10:08:55.074Z,2396.00
2017-09-19T10:09:55.042Z,2580.00
2017-09-19T10:10:55.014Z,2812.00
2017-09-19T10:11:54.987Z,3096.00
2017-09-19T10:12:54.954Z,3336.00
2017-09-19T10:13:54.927Z,3380.00
2017-09-19T10:14:54.898Z,3156.00
2017-09-19T10:15:54.867Z,2784.00
2017-09-19T10:16:54.838Z,2480.00
2017-09-19T10:17:54.809Z,2416.00
2017-09-19T10:18:54.780Z,2552.00
2017-09-19T10:19:54.750Z,2744.00
2017-09-19T10:20:54.721Z,2896.00
2017-09-19T10:21:54.693Z,2892.00
2017-09-19T10:22:54.661Z,2852.00
2017-09-19T10:23:54.631Z,2428.00
2017-09-19T10:24:54.605Z,1976.00
2017-09-19T10:25:54.572Z,1832.00
2017-09-19T10:26:54.542Z,1704.00
2017-09-19T10:27:54.514Z,1564.00
2017-09-19T10:28:54.484Z,1492.00
2017-09-19T10:29:54.455Z,1460.00
2017-09-19T10:30:54.423Z,1464.00
2017-09-19T10:31:54.394Z,1528.00
2017-09-19T10:32:54.365Z,1572.00
2017-09-19T10:33:54.333Z,1628.00
2017-09-19T10:34:54.302Z,1628.00
2017-09-19T10:35:54.275Z,1656.00
2017-09-19T10:36:54.242Z,1524.00
2017-09-19T10:37:54.212Z,1396.00
2017-09-19T10:38:54.183Z,1592.00
2017-09-19T10:39:54.150Z,1944.00
2017-09-19T10:40:54.121Z,2092.00
2017-09-19T10:41:54.091Z,2156.00
2017-09-19T10:42:54.067Z,2476.00
2017-09-19T10:43:54.841Z,2472.00
2017-09-19T10:44:54.009Z,2452.00
2017-09-19T10:45:53.970Z,2264.00
2017-09-19T10:46:53.940Z,2200.00
2017-09-19T10:47:53.908Z,2232.00
2017-09-19T10:48:53.878Z,2332.00
2017-09-19T10:49:53.849Z,2492.00
2017-09-19T10:50:53.817Z,2840.00
2017-09-19T10:51:53.787Z,3200.00
2017-09-19T10:52:53.759Z,3372.00
2017-09-19T10:53:53.727Z,3644.00
2017-09-19T10:54:53.697Z,4204.00
2017-09-19T10:55:53.667Z,4768.00
2017-09-19T10:56:53.636Z,5148.00
2017-09-19T10:57:53.607Z,4676.00
2017-09-19T10:58:53.576Z,4040.00
2017-09-19T10:59:53.547Z,3652.00
2017-09-19T11:00:53.517Z,3240.00
2017-09-19T11:01:53.488Z,2832.00
2017-09-19T11:02:53.457Z,2592.00
2017-09-19T11:03:53.427Z,2300.00
2017-09-19T11:04:53.399Z,1924.00
2017-09-19T11:05:53.380Z,1656.00
2017-09-19T11:06:53.337Z,1492.00
2017-09-19T11:07:53.308Z,1524.00
2017-09-19T11:08:53.279Z,1452.00
2017-09-19T11:09:53.248Z,1268.00
2017-09-19T11:10:53.261Z,1144.00
2017-09-19T11:11:53.188Z,1024.00
2017-09-19T11:12:53.162Z,996.00
2017-09-19T11:13:53.127Z,1104.00
2017-09-19T11:14:53.098Z,1288.00
2017-09-19T11:15:53.062Z,1340.00
2017-09-19T11:16:53.061Z,1264.00
2017-09-19T11:17:53.006Z,1180.00
2017-09-19T11:18:52.974Z,1216.00
2017-09-19T11:19:52.945Z,1316.00
2017-09-19T11:20:52.913Z,1364.00
2017-09-19T11:21:52.883Z,1368.00
2017-09-19T11:22:52.853Z,1436.00
2017-09-19T11:23:52.821Z,1488.00
2017-09-19T11:24:52.790Z,1428.00
2017-09-19T11:25:52.760Z,1208.00
2017-09-19T11:26:52.729Z,1176.00
2017-09-19T11:27:52.697Z,1380.00
2017-09-19T11:28:52.667Z,1724.00
2017-09-19T11:29:52.633Z,1848.00
2017-09-19T11:30:52.604Z,1956.00
2017-09-19T11:31:52.592Z,2072.00
2017-09-19T11:32:52.544Z,2232.00
2017-09-19T11:33:52.513Z,2420.00
2017-09-19T11:34:52.481Z,2572.00
2017-09-19T11:35:52.451Z,2544.00
2017-09-19T11:36:52.420Z,2452.00
2017-09-19T11:37:52.390Z,2368.00
2017-09-19T11:38:52.358Z,2452.00
2017-09-19T11:39:52.330Z,2564.00
2017-09-19T11:40:52.297Z,2688.00
2017-09-19T11:41:52.266Z,2712.00
2017-09-19T11:42:52.236Z,2744.00
2017-09-19T11:43:52.205Z,2800.00
2017-09-19T11:44:52.175Z,2660.00
2017-09-19T11:45:52.143Z,2416.00
2017-09-19T11:46:52.113Z,2440.00
2017-09-19T11:47:52.082Z,2660.00
2017-09-19T11:48:52.049Z,2664.00
2017-09-19T11:49:52.023Z,2516.00
2017-09-19T11:50:52.152Z,2352.00
2017-09-19T11:51:51.962Z,2152.00
2017-09-19T11:52:51.931Z,2112.00
2017-09-19T11:53:51.901Z,2116.00
2017-09-19T11:54:51.871Z,1992.00
2017-09-19T11:55:51.840Z,1872.00
2017-09-19T11:56:51.811Z,1732.00
2017-09-19T11:57:51.780Z,1784.00
2017-09-19T11:58:51.749Z,2248.00
2017-09-19T11:59:51.719Z,2540.00
2017-09-19T12:00:51.695Z,2880.00
2017-09-19T12:01:51.658Z,3112.00
2017-09-19T12:02:51.632Z,3080.00
2017-09-19T12:03:51.597Z,3184.00
2017-09-19T12:04:51.568Z,3276.00
2017-09-19T12:05:51.539Z,3408.00
2017-09-19T12:06:51.506Z,3360.00
2017-09-19T12:07:51.478Z,3248.00
2017-09-19T12:08:51.451Z,3132.00
2017-09-19T12:09:51.417Z,3052.00
2017-09-19T12:10:51.387Z,3084.00
2017-09-19T12:11:51.532Z,3176.00
2017-09-19T12:12:51.663Z,3300.00
2017-09-19T12:13:51.297Z,3500.00
2017-09-19T12:14:51.268Z,3828.00
2017-09-19T12:15:51.238Z,4324.00
2017-09-19T12:16:51.208Z,4484.00
2017-09-19T12:17:51.180Z,4484.00
2017-09-19T12:18:51.149Z,4596.00
2017-09-19T12:19:51.118Z,5072.00
2017-09-19T12:20:51.088Z,5644.00
2017-09-19T12:21:51.059Z,6424.00
2017-09-19T12:22:51.154Z,7572.00
2017-09-19T12:23:50.998Z,8988.00
2017-09-19T12:24:50.970Z,11592.00
2017-09-19T12:25:50.941Z,13124.00
2017-09-19T12:26:50.916Z,12920.00
2017-09-19T12:27:50.885Z,16576.00
2017-09-19T12:28:50.860Z,16320.00
2017-09-19T12:29:50.832Z,17088.00
2017-09-19T12:30:50.798Z,16288.00
2017-09-19T12:31:50.778Z,17216.00
2017-09-19T12:32:50.753Z,14996.00
2017-09-19T12:33:50.730Z,16480.00
2017-09-19T12:34:50.704Z,14448.00
2017-09-19T12:35:50.685Z,14240.00
2017-09-19T12:36:50.660Z,13952.00
2017-09-19T12:37:50.638Z,14048.00
2017-09-19T12:38:50.616Z,12608.00